Time;durP1;ratioP1;P1;durP2;ratioP2;P2;SDS_P1;SDS_P2;PMS_P1;PMS_P2;Temp;Humidity;BMP_temperature;BMP_pressure;BME280_temperature;BME280_humidity;BME280_pressure;Samples;Min_cycle;Max_cycle;Signal;HPM_P1;HPM_P2
2022/04/01 00:02:01;;;;;;;7.57;6.60;;;;;;;;;;5052156;28;20176;-57
2022/04/01 00:04:28;;;;;;;7.00;6.40;;;;;;;;;;5051441;28;20188;-58
2022/04/01 00:06:58;;;;;;;6.33;5.83;;;;;;;;;;5041542;28;20173;-55
2022/04/01 00:09:24;;;;;;;6.20;5.60;;;;;;;;;;5062714;28;20177;-56
2022/04/01 00:11:51;;;;;;;6.53;5.97;;;;;;;;;;5064200;28;20749;-57
2022/04/01 00:14:18;;;;;;;6.10;5.50;;;;;;;;;;5062575;28;20578;-56
2022/04/01 00:16:44;;;;;;;6.40;5.80;;;;;;;;;;5049166;28;20246;-56
2022/04/01 00:19:12;;;;;;;6.43;5.83;;;;;;;;;;5076788;28;20662;-56
2022/04/01 00:21:39;;;;;;;6.37;5.80;;;;;;;;;;5063912;28;20267;-56
2022/04/01 00:24:05;;;;;;;6.70;6.10;;;;;;;;;;5068671;28;20587;-57
2022/04/01 00:26:31;;;;;;;6.33;5.80;;;;;;;;;;5077210;28;20183;-54
2022/04/01 00:28:58;;;;;;;6.47;5.87;;;;;;;;;;5065701;28;20628;-57
2022/04/01 00:31:24;;;;;;;5.70;5.23;;;;;;;;;;5050247;28;20211;-56
2022/04/01 00:34:15;;;;;;;6.17;5.60;;;;;;;;;;5060177;28;20214;-56
2022/04/01 00:36:37;;;;;;;7.77;5.13;;;;;;;;;;5050251;28;20181;-56
2022/04/01 00:39:03;;;;;;;5.77;5.27;;;;;;;;;;5038306;28;20608;-56
2022/04/01 00:41:29;;;;;;;4.87;4.13;;;;;;;;;;5046481;28;20176;-57
2022/04/01 00:44:15;;;;;;;5.20;4.77;;;;;;;;;;5034088;28;20284;-56
2022/04/01 00:46:43;;;;;;;5.23;4.73;;;;;;;;;;5045133;28;20177;-56
2022/04/01 00:49:09;;;;;;;5.73;5.23;;;;;;;;;;5055881;28;20197;-57
2022/04/01 00:51:37;;;;;;;5.80;5.30;;;;;;;;;;5059808;28;20204;-56
2022/04/01 00:54:03;;;;;;;5.20;4.70;;;;;;;;;;5042055;28;20268;-58
2022/04/01 00:56:31;;;;;;;5.57;5.03;;;;;;;;;;5048915;28;20180;-57
2022/04/01 00:58:58;;;;;;;4.90;4.50;;;;;;;;;;5044379;28;20207;-56
2022/04/01 01:01:25;;;;;;;5.10;4.60;;;;;;;;;;5073529;28;20188;-56
2022/04/01 01:03:52;;;;;;;4.73;4.33;;;;;;;;;;5049570;28;20181;-57
2022/04/01 01:06:19;;;;;;;4.20;3.90;;;;;;;;;;5045390;28;20235;-58
2022/04/01 01:08:47;;;;;;;4.83;4.40;;;;;;;;;;5044400;28;20184;-57
2022/04/01 01:11:15;;;;;;;4.87;4.37;;;;;;;;;;5050837;28;20460;-57
2022/04/01 01:13:41;;;;;;;4.70;4.30;;;;;;;;;;5035904;28;20276;-56
2022/04/01 01:16:07;;;;;;;4.70;4.30;;;;;;;;;;5058550;28;20187;-56
2022/04/01 01:18:34;;;;;;;4.60;4.20;;;;;;;;;;5061344;28;20176;-57
2022/04/01 01:21:01;;;;;;;4.40;4.03;;;;;;;;;;5051654;28;20176;-56
2022/04/01 01:23:30;;;;;;;4.17;3.77;;;;;;;;;;5042801;28;20177;-57
2022/04/01 01:25:56;;;;;;;4.97;4.30;;;;;;;;;;5047643;28;20648;-56
2022/04/01 01:28:23;;;;;;;4.50;4.10;;;;;;;;;;5065594;28;20191;-56
2022/04/01 01:30:50;;;;;;;4.53;4.13;;;;;;;;;;5070665;28;20184;-56
2022/04/01 01:33:16;;;;;;;4.73;4.20;;;;;;;;;;5076834;28;20232;-56
2022/04/01 01:35:43;;;;;;;4.53;4.13;;;;;;;;;;5053059;28;20184;-56
2022/04/01 01:38:09;;;;;;;4.23;3.93;;;;;;;;;;5068981;28;20192;-58
2022/04/01 01:40:35;;;;;;;4.43;4.10;;;;;;;;;;5060296;28;20181;-57
2022/04/01 01:43:01;;;;;;;4.60;3.83;;;;;;;;;;5071589;28;20183;-57
2022/04/01 01:45:30;;;;;;;4.80;4.30;;;;;;;;;;5070053;28;20184;-57
2022/04/01 01:47:57;;;;;;;4.30;3.90;;;;;;;;;;5056664;28;20184;-57
2022/04/01 01:55:53;;;;;;;5.07;4.57;;;;;;;;;;5066541;28;20179;-57
2022/04/01 01:58:23;;;;;;;4.90;4.50;;;;;;;;;;5051660;28;20204;-56
2022/04/01 02:00:50;;;;;;;4.47;4.07;;;;;;;;;;5049866;28;20598;-59
2022/04/01 02:03:17;;;;;;;4.87;4.47;;;;;;;;;;5060985;28;20192;-57
2022/04/01 02:05:43;;;;;;;4.37;4.00;;;;;;;;;;5050706;28;20188;-57
2022/04/01 02:08:09;;;;;;;4.17;3.77;;;;;;;;;;5052199;28;20192;-59
2022/04/01 02:10:36;;;;;;;6.40;4.40;;;;;;;;;;5052027;28;20240;-56
2022/04/01 02:13:03;;;;;;;5.63;4.33;;;;;;;;;;5067875;28;20667;-56
2022/04/01 02:15:29;;;;;;;4.20;3.80;;;;;;;;;;5050549;28;20560;-58
2022/04/01 02:17:56;;;;;;;4.90;4.37;;;;;;;;;;5055412;28;20185;-58
2022/04/01 02:20:23;;;;;;;4.80;3.57;;;;;;;;;;5054609;28;20199;-57
2022/04/01 02:22:54;;;;;;;5.10;4.10;;;;;;;;;;5050781;28;20560;-57
2022/04/01 02:25:20;;;;;;;4.33;3.93;;;;;;;;;;5066110;28;20211;-57
2022/04/01 02:27:47;;;;;;;3.87;3.57;;;;;;;;;;5064094;28;20433;-57
2022/04/01 02:30:16;;;;;;;4.17;3.63;;;;;;;;;;5059168;28;20177;-57
2022/04/01 02:32:43;;;;;;;4.27;3.53;;;;;;;;;;5062635;28;20215;-57
2022/04/01 02:35:10;;;;;;;4.77;3.27;;;;;;;;;;5040394;28;20620;-58
2022/04/01 02:37:39;;;;;;;3.80;3.43;;;;;;;;;;5061332;28;20238;-57
2022/04/01 02:40:08;;;;;;;3.87;3.57;;;;;;;;;;5068249;28;20188;-58
2022/04/01 02:42:38;;;;;;;4.30;3.57;;;;;;;;;;5046798;28;20617;-59
2022/04/01 02:45:04;;;;;;;4.33;3.93;;;;;;;;;;5035363;28;20196;-59
2022/04/01 02:47:30;;;;;;;3.83;3.43;;;;;;;;;;5068393;28;20245;-57
2022/04/01 02:49:57;;;;;;;3.23;2.90;;;;;;;;;;5066790;28;20176;-58
2022/04/01 02:52:24;;;;;;;3.90;3.43;;;;;;;;;;5065888;28;20243;-57
2022/04/01 02:54:52;;;;;;;3.50;2.83;;;;;;;;;;5058672;28;20750;-57
2022/04/01 02:57:28;;;;;;;4.67;3.00;;;;;;;;;;5071573;28;20571;-57
2022/04/01 02:59:54;;;;;;;4.57;2.63;;;;;;;;;;5051374;28;20173;-56
2022/04/01 03:02:20;;;;;;;3.20;2.90;;;;;;;;;;5066371;28;20739;-57
2022/04/01 03:04:47;;;;;;;3.43;3.00;;;;;;;;;;5062622;28;20188;-56
2022/04/01 03:07:13;;;;;;;3.27;2.97;;;;;;;;;;5063509;28;20254;-56
2022/04/01 03:09:39;;;;;;;3.13;2.83;;;;;;;;;;5049016;28;20216;-56
2022/04/01 03:12:07;;;;;;;3.00;2.80;;;;;;;;;;5066853;28;20207;-56
2022/04/01 03:14:33;;;;;;;2.80;2.47;;;;;;;;;;5068514;28;20238;-56
2022/04/01 03:17:00;;;;;;;4.70;4.40;;;;;;;;;;5050692;28;20211;-56
2022/04/01 03:19:28;;;;;;;3.27;2.83;;;;;;;;;;5048855;28;20210;-57
2022/04/01 03:21:55;;;;;;;2.90;2.63;;;;;;;;;;5050104;28;20659;-56
2022/04/01 03:24:22;;;;;;;3.40;3.00;;;;;;;;;;5067830;28;20184;-57
2022/04/01 03:26:48;;;;;;;4.53;2.90;;;;;;;;;;5048298;28;20242;-56
2022/04/01 03:29:14;;;;;;;2.60;2.40;;;;;;;;;;5050045;28;20525;-57
2022/04/01 03:31:42;;;;;;;5.30;5.00;;;;;;;;;;5050562;28;20260;-57
2022/04/01 03:34:08;;;;;;;2.30;2.10;;;;;;;;;;5051162;28;20667;-57
2022/04/01 03:36:34;;;;;;;3.73;3.20;;;;;;;;;;5065613;28;20221;-56
2022/04/01 03:39:04;;;;;;;2.47;2.27;;;;;;;;;;5062266;28;20184;-58
2022/04/01 03:41:30;;;;;;;2.57;2.37;;;;;;;;;;5051440;28;20184;-57
2022/04/01 03:44:00;;;;;;;2.90;2.70;;;;;;;;;;5055197;28;20177;-56
2022/04/01 03:46:28;;;;;;;2.30;2.10;;;;;;;;;;5066867;28;20180;-56
2022/04/01 03:48:55;;;;;;;3.10;2.80;;;;;;;;;;5055405;28;20650;-55
2022/04/01 03:51:25;;;;;;;2.80;2.60;;;;;;;;;;5046806;28;20200;-57
2022/04/01 03:54:00;;;;;;;2.57;2.37;;;;;;;;;;5039994;28;20193;-57
2022/04/01 03:56:31;;;;;;;3.00;2.67;;;;;;;;;;5047804;28;20714;-57
2022/04/01 03:59:01;;;;;;;2.40;2.20;;;;;;;;;;5045390;28;20181;-56
2022/04/01 04:01:28;;;;;;;2.73;2.20;;;;;;;;;;5060948;28;20185;-56
2022/04/01 04:03:56;;;;;;;2.37;2.17;;;;;;;;;;5066775;28;20271;-56
2022/04/01 04:06:22;;;;;;;2.50;2.20;;;;;;;;;;5076538;28;20183;-56
2022/04/01 04:08:50;;;;;;;2.10;2.00;;;;;;;;;;5051036;28;20207;-56
2022/04/01 04:11:23;;;;;;;2.30;2.10;;;;;;;;;;5047302;28;20237;-56
2022/04/01 04:13:53;;;;;;;2.63;2.43;;;;;;;;;;5024643;28;20651;-56
2022/04/01 04:16:25;;;;;;;2.43;2.23;;;;;;;;;;5048624;28;20612;-56
2022/04/01 04:19:11;;;;;;;3.47;2.40;;;;;;;;;;5028022;28;20588;-57
2022/04/01 04:21:57;;;;;;;2.77;1.93;;;;;;;;;;5021415;28;20196;-57
2022/04/01 04:24:30;;;;;;;2.60;2.40;;;;;;;;;;4983962;28;20276;-56
2022/04/01 04:27:02;;;;;;;3.07;2.30;;;;;;;;;;5013084;28;20189;-57
2022/04/01 04:29:32;;;;;;;4.37;3.27;;;;;;;;;;5040855;28;20188;-57
2022/04/01 04:31:58;;;;;;;2.47;2.27;;;;;;;;;;5022125;28;20296;-57
2022/04/01 04:34:27;;;;;;;2.83;2.60;;;;;;;;;;5042971;28;20181;-57
2022/04/01 04:36:57;;;;;;;2.40;2.20;;;;;;;;;;5027918;28;20200;-56
2022/04/01 04:39:33;;;;;;;2.37;2.17;;;;;;;;;;5027446;28;20189;-57
2022/04/01 04:42:01;;;;;;;2.27;2.07;;;;;;;;;;5042916;28;20181;-56
2022/04/01 04:44:30;;;;;;;2.30;2.10;;;;;;;;;;5028373;28;20242;-56
2022/04/01 04:46:57;;;;;;;1.90;1.80;;;;;;;;;;5027222;28;20682;-56
2022/04/01 04:49:25;;;;;;;2.60;2.00;;;;;;;;;;5040491;28;20648;-57
2022/04/01 04:51:56;;;;;;;2.47;2.03;;;;;;;;;;5025354;28;20280;-56
2022/04/01 04:54:24;;;;;;;2.43;2.03;;;;;;;;;;5028025;28;20195;-57
2022/04/01 04:56:50;;;;;;;2.20;2.00;;;;;;;;;;5021945;28;20208;-57
2022/04/01 04:59:20;;;;;;;2.20;2.00;;;;;;;;;;5020153;28;20189;-56
2022/04/01 05:02:00;;;;;;;2.93;2.73;;;;;;;;;;5016267;28;20185;-56
2022/04/01 05:04:47;;;;;;;2.37;1.90;;;;;;;;;;5017686;28;20177;-56
2022/04/01 05:07:32;;;;;;;2.10;1.90;;;;;;;;;;5029611;28;20189;-57
2022/04/01 05:10:12;;;;;;;2.20;2.00;;;;;;;;;;5051157;28;20216;-56
2022/04/01 05:12:51;;;;;;;2.60;2.40;;;;;;;;;;5046878;28;20626;-57
2022/04/01 05:15:27;;;;;;;3.27;2.03;;;;;;;;;;5053751;28;20191;-57
2022/04/01 05:17:56;;;;;;;2.47;2.27;;;;;;;;;;5050375;28;20172;-57
2022/04/01 05:20:24;;;;;;;2.90;2.27;;;;;;;;;;5042918;28;20181;-58
2022/04/01 05:22:59;;;;;;;3.33;2.20;;;;;;;;;;5069110;28;20694;-56
2022/04/01 05:25:28;;;;;;;2.20;2.00;;;;;;;;;;5074276;28;20679;-56
2022/04/01 05:28:00;;;;;;;2.80;2.23;;;;;;;;;;5085753;28;20179;-57
2022/04/01 05:30:29;;;;;;;2.37;2.17;;;;;;;;;;5071676;28;20686;-56
2022/04/01 05:33:11;;;;;;;2.33;2.13;;;;;;;;;;5070531;28;20676;-57
2022/04/01 05:35:38;;;;;;;2.43;2.23;;;;;;;;;;5074166;28;20546;-56
2022/04/01 05:38:05;;;;;;;2.37;2.13;;;;;;;;;;5073437;28;20444;-56
2022/04/01 05:40:31;;;;;;;3.03;2.73;;;;;;;;;;5060424;28;20201;-57
2022/04/01 05:42:58;;;;;;;2.40;2.20;;;;;;;;;;5070542;28;20222;-55
2022/04/01 05:45:26;;;;;;;2.60;2.40;;;;;;;;;;5074177;28;20185;-56
2022/04/01 05:47:54;;;;;;;2.80;2.60;;;;;;;;;;5070425;28;20377;-55
2022/04/01 05:50:25;;;;;;;2.87;2.57;;;;;;;;;;5054405;28;20694;-56
2022/04/01 05:52:54;;;;;;;3.00;2.70;;;;;;;;;;5071051;28;20446;-56
2022/04/01 05:55:29;;;;;;;2.70;2.50;;;;;;;;;;5038353;28;20224;-55
2022/04/01 05:57:55;;;;;;;2.80;2.60;;;;;;;;;;5052120;28;20915;-57
2022/04/01 06:00:22;;;;;;;2.97;2.67;;;;;;;;;;5071389;28;20165;-56
2022/04/01 06:02:48;;;;;;;2.70;2.50;;;;;;;;;;5058909;28;20184;-56
2022/04/01 06:05:41;;;;;;;3.00;2.73;;;;;;;;;;5070097;28;20172;-56
2022/04/01 06:08:17;;;;;;;3.57;2.90;;;;;;;;;;5059635;28;20192;-56
2022/04/01 06:10:49;;;;;;;4.13;3.73;;;;;;;;;;5070626;28;20746;-57
2022/04/01 06:13:15;;;;;;;3.17;2.90;;;;;;;;;;5052201;28;20535;-56
2022/04/01 06:15:51;;;;;;;3.73;3.43;;;;;;;;;;5070595;28;20173;-56
2022/04/01 06:18:35;;;;;;;3.53;3.23;;;;;;;;;;5059776;28;20230;-56
2022/04/01 06:21:03;;;;;;;4.00;3.27;;;;;;;;;;5070284;28;20177;-56
2022/04/01 06:23:48;;;;;;;3.20;2.97;;;;;;;;;;5076744;28;20203;-56
2022/04/01 06:26:15;;;;;;;3.50;3.20;;;;;;;;;;5088795;28;20179;-56
2022/04/01 06:28:54;;;;;;;3.53;3.23;;;;;;;;;;5069507;28;20647;-56
2022/04/01 06:31:22;;;;;;;3.67;3.37;;;;;;;;;;5052963;28;20184;-55
2022/04/01 06:34:02;;;;;;;3.90;3.60;;;;;;;;;;5068816;28;20267;-57
2022/04/01 06:36:45;;;;;;;3.70;3.40;;;;;;;;;;5052073;28;20175;-56
2022/04/01 06:39:13;;;;;;;3.60;3.30;;;;;;;;;;5075961;28;20256;-56
2022/04/01 06:41:45;;;;;;;3.63;3.33;;;;;;;;;;5072453;28;20714;-56
2022/04/01 06:44:11;;;;;;;3.97;3.43;;;;;;;;;;5034849;28;20547;-56
2022/04/01 06:46:38;;;;;;;3.67;3.37;;;;;;;;;;5048038;28;20180;-57
2022/04/01 06:49:08;;;;;;;3.90;3.50;;;;;;;;;;5068364;28;20231;-58
2022/04/01 06:51:38;;;;;;;3.90;3.60;;;;;;;;;;5051925;28;20574;-56
2022/04/01 06:54:05;;;;;;;4.83;3.60;;;;;;;;;;5069697;28;20267;-56
2022/04/01 06:56:31;;;;;;;3.80;3.50;;;;;;;;;;5051911;28;20187;-56
2022/04/01 06:58:58;;;;;;;4.27;3.43;;;;;;;;;;5051319;28;20176;-55
2022/04/01 07:01:25;;;;;;;4.13;3.83;;;;;;;;;;5051868;28;20993;-58
2022/04/01 07:03:52;;;;;;;4.13;3.73;;;;;;;;;;5068562;28;20185;-56
2022/04/01 07:06:20;;;;;;;3.80;3.50;;;;;;;;;;5051910;28;20172;-56
2022/04/01 07:08:49;;;;;;;4.73;3.80;;;;;;;;;;5045053;28;20183;-56
2022/04/01 07:11:16;;;;;;;3.53;3.23;;;;;;;;;;5035678;28;20225;-56
2022/04/01 07:13:42;;;;;;;3.53;3.20;;;;;;;;;;5050448;28;20426;-56
2022/04/01 07:16:10;;;;;;;3.50;3.17;;;;;;;;;;5051600;28;20555;-56
2022/04/01 07:18:37;;;;;;;3.53;3.23;;;;;;;;;;5067499;28;20187;-56
2022/04/01 07:21:03;;;;;;;4.20;3.80;;;;;;;;;;5050757;28;20169;-56
2022/04/01 07:23:30;;;;;;;3.50;3.20;;;;;;;;;;5068930;28;20181;-58
2022/04/01 07:25:56;;;;;;;4.13;3.57;;;;;;;;;;5052305;28;20846;-56
2022/04/01 07:28:22;;;;;;;3.40;3.03;;;;;;;;;;5069970;28;20482;-56
2022/04/01 07:30:48;;;;;;;3.50;3.20;;;;;;;;;;5058977;28;20176;-57
2022/04/01 07:33:14;;;;;;;3.60;3.30;;;;;;;;;;5050561;28;20208;-59
2022/04/01 07:35:43;;;;;;;3.10;2.80;;;;;;;;;;5069343;28;20175;-57
2022/04/01 07:38:09;;;;;;;3.57;3.27;;;;;;;;;;5059681;28;20185;-56
2022/04/01 07:40:35;;;;;;;3.80;3.20;;;;;;;;;;5065646;28;20180;-56
2022/04/01 07:43:01;;;;;;;3.43;3.13;;;;;;;;;;5069691;28;20180;-56
2022/04/01 07:45:27;;;;;;;3.23;2.97;;;;;;;;;;5077879;28;20188;-56
2022/04/01 07:47:54;;;;;;;3.90;2.73;;;;;;;;;;5062787;28;20242;-55
2022/04/01 07:50:22;;;;;;;4.03;3.33;;;;;;;;;;5068793;28;20189;-55
2022/04/01 07:52:48;;;;;;;2.93;2.73;;;;;;;;;;5051082;28;20204;-55
2022/04/01 07:55:16;;;;;;;4.50;3.10;;;;;;;;;;5056051;28;20335;-57
2022/04/01 07:57:43;;;;;;;3.30;3.00;;;;;;;;;;5067767;28;20203;-55
2022/04/01 08:00:10;;;;;;;4.00;3.23;;;;;;;;;;5068310;28;20160;-55
2022/04/01 08:02:39;;;;;;;3.33;2.97;;;;;;;;;;5063040;28;20552;-57
2022/04/01 08:05:06;;;;;;;5.20;3.07;;;;;;;;;;5037857;28;20527;-57
2022/04/01 08:07:32;;;;;;;3.30;2.93;;;;;;;;;;5068246;28;20177;-55
2022/04/01 08:09:58;;;;;;;3.20;2.90;;;;;;;;;;5065536;28;20215;-55
2022/04/01 08:12:24;;;;;;;3.90;2.93;;;;;;;;;;5069792;28;20211;-56
2022/04/01 08:14:50;;;;;;;2.70;2.50;;;;;;;;;;5068660;28;20204;-56
2022/04/01 08:17:16;;;;;;;3.17;2.87;;;;;;;;;;5068190;28;20188;-56
2022/04/01 08:19:44;;;;;;;2.70;2.50;;;;;;;;;;5074805;28;20175;-55
2022/04/01 08:22:10;;;;;;;3.13;2.83;;;;;;;;;;5060828;28;20188;-56
2022/04/01 08:24:37;;;;;;;2.97;2.67;;;;;;;;;;5041627;28;20192;-57
2022/04/01 08:27:04;;;;;;;2.93;2.60;;;;;;;;;;5053281;28;20710;-55
2022/04/01 08:29:30;;;;;;;2.90;2.47;;;;;;;;;;5043515;28;20184;-56
2022/04/01 08:31:57;;;;;;;3.10;2.80;;;;;;;;;;5056015;28;20201;-56
2022/04/01 08:34:23;;;;;;;2.80;2.30;;;;;;;;;;5069558;28;20180;-55
2022/04/01 08:36:50;;;;;;;3.17;2.87;;;;;;;;;;5070828;28;20169;-55
2022/04/01 08:39:16;;;;;;;3.27;2.60;;;;;;;;;;5067158;28;20426;-57
2022/04/01 08:41:42;;;;;;;2.80;2.60;;;;;;;;;;5071996;28;20191;-55
2022/04/01 08:44:09;;;;;;;3.57;2.60;;;;;;;;;;5042130;28;20430;-56
2022/04/01 08:46:36;;;;;;;2.40;2.20;;;;;;;;;;5066394;28;20869;-57
2022/04/01 08:49:02;;;;;;;2.40;2.20;;;;;;;;;;5071064;28;20485;-56
2022/04/01 08:51:28;;;;;;;3.03;2.50;;;;;;;;;;5046235;28;20267;-55
2022/04/01 08:53:55;;;;;;;3.73;2.53;;;;;;;;;;5066644;28;20329;-55
2022/04/01 08:56:21;;;;;;;2.63;2.43;;;;;;;;;;5073098;28;20698;-57
2022/04/01 08:58:47;;;;;;;2.60;2.40;;;;;;;;;;5076319;28;20418;-55
2022/04/01 09:01:14;;;;;;;2.87;2.63;;;;;;;;;;5064811;28;20426;-57
2022/04/01 09:03:41;;;;;;;2.90;2.60;;;;;;;;;;5077122;28;20253;-56
2022/04/01 09:06:08;;;;;;;3.97;2.43;;;;;;;;;;5085095;28;20609;-56
2022/04/01 09:08:35;;;;;;;2.47;2.27;;;;;;;;;;5060341;28;20192;-55
2022/04/01 09:11:04;;;;;;;2.60;2.40;;;;;;;;;;5071048;28;20212;-57
2022/04/01 09:13:32;;;;;;;2.73;2.53;;;;;;;;;;5074080;28;20197;-55
2022/04/01 09:15:59;;;;;;;2.50;2.23;;;;;;;;;;5068660;28;20485;-55
2022/04/01 09:18:45;;;;;;;3.03;2.20;;;;;;;;;;5066560;28;20446;-55
2022/04/01 09:21:12;;;;;;;2.90;2.50;;;;;;;;;;5041312;28;20431;-56
2022/04/01 09:23:39;;;;;;;2.40;2.20;;;;;;;;;;5060866;28;20537;-55
2022/04/01 09:26:06;;;;;;;2.57;2.07;;;;;;;;;;5044803;28;20955;-55
2022/04/01 09:28:34;;;;;;;2.47;2.27;;;;;;;;;;5075849;28;20471;-56
2022/04/01 09:31:02;;;;;;;2.80;2.30;;;;;;;;;;5082325;28;20179;-55
2022/04/01 09:33:32;;;;;;;2.70;2.50;;;;;;;;;;5047832;28;20497;-55
2022/04/01 09:36:03;;;;;;;2.63;2.43;;;;;;;;;;5055893;28;20172;-56
2022/04/01 09:38:30;;;;;;;4.03;2.83;;;;;;;;;;5070919;28;20399;-55
2022/04/01 09:41:02;;;;;;;3.47;2.53;;;;;;;;;;5073037;28;20477;-60
2022/04/01 09:43:28;;;;;;;3.60;2.83;;;;;;;;;;5040949;28;20501;-55
2022/04/01 09:45:54;;;;;;;2.57;2.37;;;;;;;;;;5070021;28;20939;-55
2022/04/01 09:48:21;;;;;;;3.17;2.60;;;;;;;;;;5079026;28;20638;-55
2022/04/01 09:50:59;;;;;;;2.93;2.23;;;;;;;;;;5084801;28;20848;-56
2022/04/01 09:53:26;;;;;;;3.07;2.77;;;;;;;;;;5060829;28;20300;-55
2022/04/01 09:55:52;;;;;;;2.37;2.13;;;;;;;;;;5048124;28;20517;-56
2022/04/01 09:58:20;;;;;;;2.83;2.20;;;;;;;;;;5066670;28;20201;-54
2022/04/01 10:00:47;;;;;;;3.03;2.70;;;;;;;;;;5064987;28;20439;-55
2022/04/01 10:03:15;;;;;;;2.47;2.27;;;;;;;;;;5045309;28;20184;-56
2022/04/01 10:05:42;;;;;;;2.80;2.60;;;;;;;;;;5029020;28;20634;-54
2022/04/01 10:08:09;;;;;;;3.57;2.57;;;;;;;;;;5067544;28;20192;-56
2022/04/01 10:10:36;;;;;;;2.97;2.70;;;;;;;;;;5044906;28;20463;-55
2022/04/01 10:13:06;;;;;;;2.90;2.40;;;;;;;;;;5056920;28;20470;-56
2022/04/01 10:15:33;;;;;;;3.93;2.60;;;;;;;;;;5054327;28;20181;-57
2022/04/01 10:18:00;;;;;;;2.40;2.10;;;;;;;;;;5029463;28;20972;-55
2022/04/01 10:20:31;;;;;;;3.30;2.87;;;;;;;;;;5050642;28;20851;-55
2022/04/01 10:22:58;;;;;;;2.33;2.13;;;;;;;;;;5046120;28;20431;-56
2022/04/01 10:25:30;;;;;;;2.60;2.40;;;;;;;;;;5043152;28;20434;-55
2022/04/01 10:27:57;;;;;;;3.00;2.67;;;;;;;;;;5039537;28;20434;-56
2022/04/01 10:30:25;;;;;;;2.37;2.10;;;;;;;;;;5063811;28;20439;-55
2022/04/01 10:32:51;;;;;;;3.20;2.60;;;;;;;;;;5053319;28;20466;-55
2022/04/01 10:35:22;;;;;;;3.60;3.10;;;;;;;;;;5042147;28;20895;-55
2022/04/01 10:37:53;;;;;;;2.67;2.20;;;;;;;;;;5065284;28;20842;-54
2022/04/01 10:40:19;;;;;;;2.90;2.47;;;;;;;;;;5052349;28;20430;-55
2022/04/01 10:42:46;;;;;;;3.03;2.67;;;;;;;;;;5060076;28;20442;-55
2022/04/01 10:45:15;;;;;;;3.53;2.90;;;;;;;;;;5058761;28;20271;-54
2022/04/01 10:53:45;;;;;;;3.07;2.50;;;;;;;;;;5068168;28;20249;-55
2022/04/01 10:56:23;;;;;;;2.40;2.20;;;;;;;;;;5070500;28;20468;-56
2022/04/01 10:59:06;;;;;;;3.27;2.63;;;;;;;;;;5058213;28;20181;-54
2022/04/01 11:01:34;;;;;;;3.53;2.50;;;;;;;;;;5067704;28;20184;-55
2022/04/01 11:04:20;;;;;;;2.20;2.00;;;;;;;;;;5052529;28;20264;-55
2022/04/01 11:07:03;;;;;;;4.93;2.50;;;;;;;;;;5048923;28;20173;-55
2022/04/01 11:09:34;;;;;;;2.50;2.30;;;;;;;;;;5069002;28;20855;-55
2022/04/01 11:12:16;;;;;;;2.67;2.47;;;;;;;;;;5078124;28;20832;-55
2022/04/01 11:15:10;;;;;;;2.97;2.70;;;;;;;;;;5036095;28;20514;-55
2022/04/01 11:17:36;;;;;;;2.43;2.23;;;;;;;;;;5068588;28;20172;-56
2022/04/01 11:20:12;;;;;;;3.03;2.83;;;;;;;;;;5061297;28;20825;-55
2022/04/01 11:22:39;;;;;;;2.83;2.60;;;;;;;;;;5069616;28;20429;-55
2022/04/01 11:25:07;;;;;;;2.87;2.57;;;;;;;;;;5066041;28;20189;-55
2022/04/01 11:27:34;;;;;;;2.43;2.23;;;;;;;;;;5043739;28;20246;-55
2022/04/01 11:30:13;;;;;;;2.50;2.30;;;;;;;;;;5053358;28;20789;-55
2022/04/01 11:32:40;;;;;;;3.00;2.47;;;;;;;;;;5061213;28;20219;-57
2022/04/01 11:35:08;;;;;;;3.73;3.03;;;;;;;;;;5067893;28;20754;-54
2022/04/01 11:37:41;;;;;;;4.17;2.70;;;;;;;;;;5049522;28;20192;-56
2022/04/01 11:40:09;;;;;;;2.90;2.53;;;;;;;;;;5061591;28;20176;-55
2022/04/01 11:42:47;;;;;;;2.83;2.50;;;;;;;;;;5053786;28;20933;-56
2022/04/01 11:45:13;;;;;;;4.73;2.70;;;;;;;;;;5072626;28;20225;-55
2022/04/01 11:47:40;;;;;;;2.90;2.70;;;;;;;;;;5048117;28;20435;-56
2022/04/01 11:50:10;;;;;;;3.23;2.93;;;;;;;;;;5065220;28;20267;-54
2022/04/01 11:52:39;;;;;;;2.70;2.40;;;;;;;;;;5066561;28;20667;-54
2022/04/01 11:55:19;;;;;;;3.30;2.57;;;;;;;;;;5065797;28;20190;-54
2022/04/01 11:57:47;;;;;;;2.93;2.60;;;;;;;;;;5068385;28;21021;-55
2022/04/01 12:00:13;;;;;;;4.03;3.27;;;;;;;;;;5056423;28;20481;-54
2022/04/01 12:02:39;;;;;;;3.00;2.50;;;;;;;;;;5062342;28;20187;-57
2022/04/01 12:05:06;;;;;;;2.73;2.30;;;;;;;;;;5049750;28;20173;-55
2022/04/01 12:10:27;;;;;;;3.67;3.37;;;;;;;;;;5067371;28;20270;-55
2022/04/01 12:12:54;;;;;;;2.80;2.07;;;;;;;;;;5048241;28;20961;-54
2022/04/01 12:15:37;;;;;;;3.30;3.00;;;;;;;;;;5069524;28;20168;-55
2022/04/01 12:18:05;;;;;;;4.10;2.53;;;;;;;;;;5060688;28;20184;-56
2022/04/01 12:20:31;;;;;;;3.37;2.80;;;;;;;;;;5067613;28;20419;-56
2022/04/01 12:23:01;;;;;;;3.10;2.70;;;;;;;;;;5051693;28;20284;-54
2022/04/01 12:25:29;;;;;;;2.80;2.10;;;;;;;;;;5055975;28;20638;-55
2022/04/01 12:27:55;;;;;;;3.37;2.50;;;;;;;;;;5047078;28;20431;-56
2022/04/01 12:30:28;;;;;;;4.80;3.30;;;;;;;;;;5060693;28;20258;-55
2022/04/01 12:32:59;;;;;;;3.27;2.97;;;;;;;;;;5048049;28;20466;-55
2022/04/01 12:35:25;;;;;;;3.63;3.07;;;;;;;;;;5048440;28;20694;-56
2022/04/01 12:38:08;;;;;;;3.10;2.60;;;;;;;;;;5065162;28;20419;-55
2022/04/01 12:40:35;;;;;;;2.77;2.40;;;;;;;;;;5050184;28;20423;-56
2022/04/01 12:43:01;;;;;;;3.40;3.10;;;;;;;;;;5047272;28;20195;-56
2022/04/01 12:45:28;;;;;;;3.20;2.90;;;;;;;;;;5030728;28;20911;-55
2022/04/01 12:47:54;;;;;;;3.73;3.03;;;;;;;;;;5017172;28;20188;-56
2022/04/01 12:50:33;;;;;;;3.60;2.90;;;;;;;;;;5048080;28;20189;-56
2022/04/01 12:53:08;;;;;;;3.53;3.23;;;;;;;;;;5071342;28;20291;-56
2022/04/01 12:55:34;;;;;;;5.27;3.40;;;;;;;;;;5073972;28;20770;-55
2022/04/01 12:58:00;;;;;;;3.40;3.10;;;;;;;;;;5078847;28;20439;-57
2022/04/01 13:00:26;;;;;;;3.43;3.13;;;;;;;;;;5070210;28;20187;-55
2022/04/01 13:02:52;;;;;;;3.50;3.20;;;;;;;;;;5054811;28;20967;-55
2022/04/01 13:05:20;;;;;;;3.50;3.20;;;;;;;;;;5057294;28;20446;-57
2022/04/01 13:07:46;;;;;;;4.13;3.37;;;;;;;;;;5061548;28;20434;-57
2022/04/01 13:10:16;;;;;;;3.10;2.80;;;;;;;;;;5045274;28;20469;-56
2022/04/01 13:12:43;;;;;;;5.27;2.93;;;;;;;;;;5054663;28;20227;-55
2022/04/01 13:15:11;;;;;;;3.00;2.70;;;;;;;;;;5069106;28;20647;-56
2022/04/01 13:17:44;;;;;;;4.67;3.07;;;;;;;;;;5065045;28;20242;-56
2022/04/01 13:20:12;;;;;;;3.13;2.83;;;;;;;;;;5065857;28;20423;-56
2022/04/01 13:22:38;;;;;;;3.27;2.97;;;;;;;;;;5066507;28;20177;-56
2022/04/01 13:25:05;;;;;;;3.50;2.97;;;;;;;;;;5077243;28;20917;-57
2022/04/01 13:27:31;;;;;;;3.40;3.10;;;;;;;;;;5058888;28;20231;-55
2022/04/01 13:30:01;;;;;;;3.83;3.47;;;;;;;;;;5065634;28;20441;-56
2022/04/01 13:32:27;;;;;;;4.10;3.70;;;;;;;;;;5070366;28;20957;-56
2022/04/01 13:34:53;;;;;;;3.90;3.53;;;;;;;;;;5063786;28;20780;-56
2022/04/01 13:37:19;;;;;;;3.73;3.43;;;;;;;;;;5070834;28;20410;-58
2022/04/01 13:39:51;;;;;;;3.63;3.33;;;;;;;;;;5053625;28;20176;-56
2022/04/01 13:42:19;;;;;;;6.33;3.60;;;;;;;;;;5069086;28;20669;-56
2022/04/01 13:44:45;;;;;;;3.47;3.17;;;;;;;;;;5051634;28;20549;-56
2022/04/01 13:47:12;;;;;;;3.47;3.20;;;;;;;;;;5033324;28;20430;-56
2022/04/01 13:49:39;;;;;;;3.80;3.50;;;;;;;;;;5060842;28;20262;-56
2022/04/01 13:52:08;;;;;;;3.43;3.13;;;;;;;;;;5041826;28;20484;-56
2022/04/01 13:54:34;;;;;;;5.00;3.67;;;;;;;;;;5055260;28;20212;-57
2022/04/01 13:57:00;;;;;;;4.30;3.70;;;;;;;;;;5073704;28;20196;-57
2022/04/01 13:59:27;;;;;;;3.37;3.07;;;;;;;;;;5058181;28;20581;-58
2022/04/01 14:01:53;;;;;;;6.40;3.27;;;;;;;;;;5054119;28;20531;-56
2022/04/01 14:04:20;;;;;;;3.83;3.53;;;;;;;;;;5048273;28;20346;-58
2022/04/01 14:06:50;;;;;;;3.50;3.17;;;;;;;;;;5070208;28;20176;-57
2022/04/01 14:09:16;;;;;;;3.50;3.20;;;;;;;;;;5034739;28;20184;-56
2022/04/01 14:11:43;;;;;;;3.50;3.17;;;;;;;;;;5043025;28;20278;-55
2022/04/01 14:14:09;;;;;;;3.50;3.20;;;;;;;;;;5068026;28;20411;-56
2022/04/01 14:16:36;;;;;;;3.20;2.87;;;;;;;;;;5057572;28;20419;-57
2022/04/01 14:19:05;;;;;;;3.43;3.13;;;;;;;;;;5066355;28;20830;-56
2022/04/01 14:21:31;;;;;;;3.40;3.10;;;;;;;;;;5079051;28;20427;-56
2022/04/01 14:23:57;;;;;;;3.63;3.33;;;;;;;;;;5054235;28;20195;-57
2022/04/01 14:26:25;;;;;;;3.53;3.23;;;;;;;;;;5069433;28;21513;-56
2022/04/01 14:28:51;;;;;;;3.97;3.57;;;;;;;;;;5073291;28;20494;-56
2022/04/01 14:31:19;;;;;;;3.57;3.03;;;;;;;;;;5048188;28;20435;-56
2022/04/01 14:33:46;;;;;;;3.57;3.27;;;;;;;;;;5067415;28;20208;-57
2022/04/01 14:36:12;;;;;;;4.47;3.43;;;;;;;;;;5057989;28;20257;-57
2022/04/01 14:38:38;;;;;;;3.97;3.57;;;;;;;;;;5075890;28;20449;-56
2022/04/01 14:41:04;;;;;;;4.00;3.57;;;;;;;;;;5053192;28;20683;-56
2022/04/01 14:43:31;;;;;;;4.70;3.43;;;;;;;;;;5046898;28;20224;-57
2022/04/01 14:45:57;;;;;;;3.50;3.10;;;;;;;;;;5072319;28;20422;-56
2022/04/01 14:48:23;;;;;;;4.07;3.67;;;;;;;;;;5066723;28;20184;-56
2022/04/01 14:50:49;;;;;;;5.63;3.50;;;;;;;;;;5067828;28;20440;-55
2022/04/01 14:53:17;;;;;;;3.87;3.50;;;;;;;;;;5072079;28;20462;-55
2022/04/01 14:55:43;;;;;;;4.30;3.90;;;;;;;;;;5070438;28;20222;-56
2022/04/01 14:58:09;;;;;;;4.17;3.77;;;;;;;;;;5065575;28;20439;-56
2022/04/01 15:00:35;;;;;;;4.50;4.10;;;;;;;;;;5075301;28;20186;-56
2022/04/01 15:03:03;;;;;;;4.50;4.10;;;;;;;;;;5054529;28;20195;-57
2022/04/01 15:05:29;;;;;;;4.37;3.90;;;;;;;;;;5052004;28;20910;-57
2022/04/01 15:07:58;;;;;;;4.63;4.00;;;;;;;;;;5062571;28;20941;-57